createdAt,value
2023-01-09T00:01:24.412Z,56.22
2023-01-09T00:04:10.461Z,56.06
2023-01-09T00:06:56.385Z,55.60
2023-01-09T00:09:42.464Z,56.06
2023-01-09T00:12:28.332Z,56.53
2023-01-09T00:15:14.023Z,56.11
2023-01-09T00:17:59.606Z,55.91
2023-01-09T00:20:45.161Z,56.56
2023-01-09T00:23:30.863Z,56.24
2023-01-09T00:26:18.706Z,56.42
2023-01-09T00:29:04.960Z,56.34
2023-01-09T00:31:50.660Z,55.95
2023-01-09T00:34:37.666Z,56.27
2023-01-09T00:37:23.805Z,56.22
2023-01-09T00:40:11.284Z,56.27
2023-01-09T00:42:57.283Z,56.03
2023-01-09T00:45:43.090Z,56.82
2023-01-09T00:48:29.730Z,56.65
2023-01-09T00:51:17.361Z,56.12
2023-01-09T00:54:04.236Z,56.55
2023-01-09T00:56:50.265Z,56.44
2023-01-09T00:59:35.958Z,56.04
2023-01-09T01:02:21.908Z,56.07
2023-01-09T01:05:27.189Z,55.97
2023-01-09T01:08:14.891Z,55.87
2023-01-09T01:11:09.347Z,55.94
2023-01-09T01:13:55.419Z,55.96
2023-01-09T01:16:41.328Z,56.70
2023-01-09T01:19:26.982Z,56.57
2023-01-09T01:22:12.598Z,56.18
2023-01-09T01:24:58.433Z,56.39
2023-01-09T01:27:44.707Z,56.11
2023-01-09T01:30:31.499Z,56.52
2023-01-09T01:33:17.564Z,56.63
2023-01-09T01:36:08.660Z,56.27
2023-01-09T01:38:54.678Z,56.46
2023-01-09T01:41:40.492Z,56.42
2023-01-09T01:45:03.814Z,57.06
2023-01-09T01:47:49.351Z,56.37
2023-01-09T01:50:45.866Z,56.86
2023-01-09T01:53:36.330Z,56.60
2023-01-09T01:56:29.188Z,56.47
2023-01-09T01:59:23.101Z,56.37
2023-01-09T02:02:09.869Z,56.39
2023-01-09T02:04:57.084Z,56.42
2023-01-09T02:07:47.616Z,56.80
2023-01-09T02:10:34.455Z,56.93
2023-01-09T02:13:20.620Z,56.62
2023-01-09T02:16:15.546Z,56.48
2023-01-09T02:19:35.758Z,57.16
2023-01-09T02:22:36.830Z,56.47
2023-01-09T02:25:31.998Z,56.90
2023-01-09T02:28:30.312Z,57.04
2023-01-09T02:31:44.726Z,57.14
2023-01-09T02:35:01.572Z,56.89
2023-01-09T02:38:12.291Z,57.06
2023-01-09T02:41:13.616Z,56.47
2023-01-09T02:44:31.980Z,56.75
2023-01-09T02:47:20.739Z,56.92
2023-01-09T02:50:13.776Z,56.92
2023-01-09T02:53:19.221Z,56.87
2023-01-09T02:56:11.214Z,56.98
2023-01-09T02:59:15.342Z,56.72
2023-01-09T03:02:39.549Z,57.31
2023-01-09T03:05:50.123Z,56.54
2023-01-09T03:08:43.646Z,57.04
2023-01-09T03:11:30.952Z,58.12
2023-01-09T03:14:21.132Z,56.98
2023-01-09T03:17:12.749Z,56.60
2023-01-09T03:20:01.199Z,57.01
2023-01-09T03:22:54.792Z,56.83
2023-01-09T03:25:40.762Z,57.30
2023-01-09T03:28:28.613Z,56.70
2023-01-09T03:31:15.086Z,56.96
2023-01-09T03:34:01.246Z,57.18
2023-01-09T03:36:46.910Z,57.39
2023-01-09T03:39:32.709Z,57.41
2023-01-09T03:42:18.772Z,56.67
2023-01-09T03:45:05.299Z,56.60
2023-01-09T03:47:52.964Z,56.90
2023-01-09T03:50:39.189Z,57.40
2023-01-09T03:53:26.982Z,57.30
2023-01-09T03:56:12.566Z,57.33
2023-01-09T03:58:58.178Z,57.17
2023-01-09T04:01:43.908Z,57.14
2023-01-09T04:04:29.755Z,57.05
2023-01-09T04:07:15.555Z,57.57
2023-01-09T04:10:01.442Z,57.52
2023-01-09T04:12:47.171Z,57.04
2023-01-09T04:15:32.862Z,57.06
2023-01-09T04:18:18.642Z,57.42
2023-01-09T04:21:04.324Z,57.27
2023-01-09T04:23:50.042Z,56.87
2023-01-09T04:26:35.696Z,57.10
2023-01-09T04:29:21.531Z,57.46
2023-01-09T04:32:07.609Z,57.52
2023-01-09T04:34:54.201Z,57.12
2023-01-09T04:37:39.828Z,57.13
2023-01-09T04:40:25.527Z,57.44
2023-01-09T04:43:11.290Z,57.15
2023-01-09T04:45:57.012Z,57.23
2023-01-09T04:48:43.506Z,57.23
2023-01-09T04:51:29.244Z,57.37
2023-01-09T04:54:15.040Z,57.63
2023-01-09T04:57:01.036Z,57.38
2023-01-09T04:59:46.923Z,57.74
2023-01-09T05:02:32.470Z,57.71
2023-01-09T05:05:18.489Z,57.83
2023-01-09T05:08:06.031Z,57.97
2023-01-09T05:10:51.927Z,58.02
2023-01-09T05:13:37.596Z,57.74
2023-01-09T05:16:23.319Z,57.71
2023-01-09T05:19:09.175Z,58.04
2023-01-09T05:21:54.936Z,57.61
2023-01-09T05:24:40.612Z,57.96
2023-01-09T05:27:27.365Z,57.87
2023-01-09T05:30:15.511Z,57.88
2023-01-09T05:33:03.300Z,57.87
2023-01-09T05:35:48.952Z,57.57
2023-01-09T05:38:34.811Z,58.01
2023-01-09T05:41:21.370Z,58.26
2023-01-09T05:44:07.912Z,57.65
2023-01-09T05:46:53.608Z,57.94
2023-01-09T05:49:39.104Z,57.76
2023-01-09T05:52:24.939Z,57.82
2023-01-09T05:55:11.513Z,57.97
2023-01-09T05:57:57.250Z,58.03
2023-01-09T06:00:43.066Z,57.96
2023-01-09T06:03:28.797Z,57.91
2023-01-09T06:06:14.680Z,57.83
2023-01-09T06:09:00.392Z,57.69
2023-01-09T06:11:46.101Z,57.73
2023-01-09T06:14:31.764Z,57.92
2023-01-09T06:17:17.331Z,57.97
2023-01-09T06:20:03.381Z,58.10
2023-01-09T06:22:52.038Z,57.81
2023-01-09T06:25:37.962Z,57.87
2023-01-09T06:28:23.616Z,57.92
2023-01-09T06:31:09.347Z,57.94
2023-01-09T06:33:54.977Z,57.99
2023-01-09T06:36:40.696Z,57.92
2023-01-09T06:39:26.417Z,57.92
2023-01-09T06:42:12.093Z,58.14
2023-01-09T06:45:01.405Z,57.61
2023-01-09T06:47:48.418Z,57.91
2023-01-09T06:50:34.825Z,58.01
2023-01-09T06:53:20.985Z,57.93
2023-01-09T06:56:06.859Z,58.04
2023-01-09T06:58:52.950Z,58.39
2023-01-09T07:01:39.932Z,58.12
2023-01-09T07:04:25.979Z,58.25
2023-01-09T07:07:11.838Z,58.27
2023-01-09T07:09:57.629Z,58.05
2023-01-09T07:12:43.432Z,58.24
2023-01-09T07:15:29.209Z,58.32
2023-01-09T07:18:14.761Z,58.18
2023-01-09T07:21:00.401Z,58.31
2023-01-09T07:23:46.119Z,58.40
2023-01-09T07:26:31.771Z,58.07
2023-01-09T07:29:17.558Z,58.32
2023-01-09T07:32:03.931Z,58.19
2023-01-09T07:34:51.672Z,58.29
2023-01-09T07:37:37.653Z,58.28
2023-01-09T07:40:23.710Z,58.33
2023-01-09T07:43:09.462Z,58.49
2023-01-09T07:45:55.314Z,58.47
2023-01-09T07:48:41.031Z,58.21
2023-01-09T07:51:26.585Z,58.08
2023-01-09T07:54:13.602Z,58.26
2023-01-09T07:56:59.243Z,58.29
2023-01-09T07:59:45.257Z,58.41
2023-01-09T08:02:31.230Z,57.80
2023-01-09T08:05:17.138Z,58.23
2023-01-09T08:08:03.110Z,58.37
2023-01-09T08:10:48.919Z,57.96
2023-01-09T08:13:35.119Z,58.08
2023-01-09T08:16:20.683Z,58.22
2023-01-09T08:19:06.482Z,57.61
2023-01-09T08:21:52.336Z,58.01
2023-01-09T08:24:38.001Z,57.94
2023-01-09T08:27:23.731Z,58.05
2023-01-09T08:30:10.416Z,58.01
2023-01-09T08:32:56.202Z,58.20
2023-01-09T08:35:44.053Z,57.54
2023-01-09T08:38:30.096Z,57.67
2023-01-09T08:41:35.445Z,57.78
2023-01-09T08:44:40.214Z,57.66
2023-01-09T08:47:27.382Z,58.02
2023-01-09T08:50:13.409Z,57.52
2023-01-09T08:52:59.098Z,57.62
2023-01-09T08:55:45.015Z,57.78
2023-01-09T08:58:30.917Z,57.55
2023-01-09T09:01:16.906Z,57.54
2023-01-09T09:04:05.368Z,57.46
2023-01-09T09:06:51.297Z,57.63
2023-01-09T09:09:37.009Z,57.16
2023-01-09T09:12:23.041Z,57.28
2023-01-09T09:15:12.699Z,57.01
2023-01-09T09:18:04.350Z,57.48
2023-01-09T09:20:50.143Z,57.22
2023-01-09T09:23:35.815Z,57.48
2023-01-09T09:26:21.478Z,56.96
2023-01-09T09:29:07.210Z,57.21
2023-01-09T09:31:53.445Z,57.46
2023-01-09T09:34:39.408Z,57.49
2023-01-09T09:37:25.122Z,57.00
2023-01-09T09:40:19.236Z,57.15
2023-01-09T09:43:57.781Z,56.54
2023-01-09T09:47:20.396Z,56.72
2023-01-09T09:50:34.361Z,55.83
2023-01-09T09:53:40.365Z,56.37
2023-01-09T09:56:27.986Z,57.03
2023-01-09T09:59:25.552Z,56.67
2023-01-09T10:02:17.028Z,56.98
2023-01-09T10:05:12.064Z,56.48
2023-01-09T10:08:15.357Z,56.75
2023-01-09T10:11:02.401Z,57.19
2023-01-09T10:14:22.875Z,56.65
2023-01-09T10:17:21.932Z,56.84
2023-01-09T10:20:12.357Z,56.43
2023-01-09T10:23:06.792Z,56.57
2023-01-09T10:25:58.570Z,56.56
2023-01-09T10:28:50.716Z,56.77
2023-01-09T10:32:14.096Z,56.26
2023-01-09T10:35:09.165Z,56.37
2023-01-09T10:37:57.762Z,56.58
2023-01-09T10:41:07.787Z,56.16
2023-01-09T10:44:18.077Z,56.51
2023-01-09T10:47:09.412Z,56.36
2023-01-09T10:49:55.980Z,56.76
2023-01-09T10:52:42.890Z,56.51
2023-01-09T10:55:44.243Z,56.78
2023-01-09T10:58:30.043Z,56.59
2023-01-09T11:01:24.305Z,56.58
2023-01-09T11:04:29.848Z,56.34
2023-01-09T11:07:22.355Z,56.58
2023-01-09T11:10:12.000Z,56.11
2023-01-09T11:13:17.813Z,56.43
2023-01-09T11:17:01.588Z,56.34
2023-01-09T11:20:18.059Z,56.24
2023-01-09T11:23:04.134Z,56.33
2023-01-09T11:25:55.957Z,56.43
2023-01-09T11:28:41.905Z,56.67
2023-01-09T11:31:29.631Z,56.46
2023-01-09T11:34:22.469Z,57.01
2023-01-09T11:37:12.443Z,56.52
2023-01-09T11:39:59.948Z,56.30
2023-01-09T11:43:21.614Z,56.65
2023-01-09T11:46:13.488Z,56.26
2023-01-09T11:49:00.161Z,56.88
2023-01-09T11:51:46.421Z,56.46
2023-01-09T11:54:35.181Z,56.48
2023-01-09T11:57:22.508Z,56.25
2023-01-09T12:00:26.025Z,57.18
2023-01-09T12:03:56.248Z,56.50
2023-01-09T12:07:16.286Z,56.69
2023-01-09T12:10:12.128Z,56.97
2023-01-09T12:13:08.138Z,56.79
2023-01-09T12:16:23.334Z,56.56
2023-01-09T12:19:34.359Z,56.86
2023-01-09T12:22:32.176Z,56.83
2023-01-09T12:25:29.157Z,56.66
2023-01-09T12:28:34.713Z,56.31
2023-01-09T12:31:24.304Z,56.62
2023-01-09T12:34:53.228Z,56.57
2023-01-09T12:37:51.380Z,56.06
2023-01-09T12:40:53.348Z,56.29
2023-01-09T12:43:58.443Z,55.91
2023-01-09T12:47:03.459Z,56.01
2023-01-09T12:49:53.851Z,56.21
2023-01-09T12:52:44.344Z,56.10
2023-01-09T12:55:34.572Z,55.69
2023-01-09T12:58:55.260Z,54.89
2023-01-09T13:01:46.217Z,55.42
2023-01-09T13:04:36.354Z,55.38
2023-01-09T13:07:26.302Z,55.25
2023-01-09T13:10:47.500Z,54.67
2023-01-09T13:13:45.688Z,55.25
2023-01-09T13:16:35.752Z,55.39
2023-01-09T13:19:40.034Z,55.43
2023-01-09T13:22:26.389Z,54.53
2023-01-09T13:25:25.539Z,55.11
2023-01-09T13:28:35.130Z,55.39
2023-01-09T13:31:48.828Z,55.30
2023-01-09T13:34:36.238Z,55.46
2023-01-09T13:37:27.959Z,55.30
2023-01-09T13:40:33.112Z,54.85
2023-01-09T13:43:19.151Z,55.15
2023-01-09T13:46:05.603Z,54.99
2023-01-09T13:48:51.418Z,55.02
2023-01-09T13:51:57.041Z,55.07
2023-01-09T13:54:55.622Z,53.92
2023-01-09T13:58:14.968Z,54.47
2023-01-09T14:01:04.724Z,54.69
2023-01-09T14:04:27.587Z,53.70
2023-01-09T14:07:25.413Z,54.81
2023-01-09T14:10:24.497Z,54.59
2023-01-09T14:13:38.409Z,54.66
2023-01-09T14:16:27.117Z,54.63
2023-01-09T14:19:16.437Z,54.65
2023-01-09T14:22:02.896Z,54.87
2023-01-09T14:24:52.705Z,55.08
2023-01-09T14:28:06.815Z,54.10
2023-01-09T14:30:53.790Z,54.54
2023-01-09T14:33:40.033Z,54.56
2023-01-09T14:36:29.464Z,54.95
2023-01-09T14:39:15.682Z,54.66
2023-01-09T14:42:15.685Z,54.47
2023-01-09T14:45:18.385Z,54.30
2023-01-09T14:48:06.355Z,54.23
2023-01-09T14:50:55.877Z,54.41
2023-01-09T14:53:43.208Z,54.32
2023-01-09T14:56:31.233Z,54.62
2023-01-09T14:59:19.350Z,54.37
2023-01-09T15:02:09.804Z,54.73
2023-01-09T15:04:59.147Z,55.04
2023-01-09T15:08:01.463Z,54.43
2023-01-09T15:10:54.232Z,54.40
2023-01-09T15:13:46.445Z,54.06
2023-01-09T15:16:32.943Z,55.03
2023-01-09T15:19:19.948Z,54.71
2023-01-09T15:22:22.807Z,54.11
2023-01-09T15:25:27.327Z,54.14
2023-01-09T15:28:42.060Z,54.35
2023-01-09T15:31:28.843Z,54.85
2023-01-09T15:34:18.803Z,54.65
2023-01-09T15:37:05.196Z,54.83
2023-01-09T15:39:51.127Z,54.88
2023-01-09T15:42:57.276Z,54.94
2023-01-09T15:45:45.330Z,54.16
2023-01-09T15:48:34.209Z,54.39
2023-01-09T15:51:20.734Z,54.75
2023-01-09T15:54:06.369Z,54.32
2023-01-09T15:56:52.342Z,54.18
2023-01-09T15:59:38.737Z,54.61
2023-01-09T16:02:44.936Z,54.48
2023-01-09T16:05:33.177Z,54.38
2023-01-09T16:08:40.114Z,54.84
2023-01-09T16:11:29.888Z,54.63
2023-01-09T16:14:22.914Z,54.78
2023-01-09T16:17:17.728Z,54.56
2023-01-09T16:20:25.117Z,54.53
2023-01-09T16:23:25.371Z,54.51
2023-01-09T16:26:13.684Z,54.83
2023-01-09T16:29:40.256Z,54.72
2023-01-09T16:32:48.127Z,54.93
2023-01-09T16:35:34.885Z,55.06
2023-01-09T16:38:22.586Z,54.77
2023-01-09T16:41:35.256Z,54.92
2023-01-09T16:44:21.277Z,54.80
2023-01-09T16:47:11.849Z,54.51
2023-01-09T16:49:58.068Z,54.85
2023-01-09T16:52:45.824Z,54.71
2023-01-09T16:55:32.326Z,54.78
2023-01-09T16:58:22.956Z,54.54
2023-01-09T17:01:10.476Z,54.60
2023-01-09T17:03:56.729Z,54.78
2023-01-09T17:06:43.083Z,54.96
2023-01-09T17:09:32.956Z,54.97
2023-01-09T17:12:21.017Z,54.86
2023-01-09T17:15:08.174Z,54.62
2023-01-09T17:17:54.001Z,54.64
2023-01-09T17:20:41.291Z,54.42
2023-01-09T17:23:26.864Z,55.14
2023-01-09T17:26:40.106Z,55.27
2023-01-09T17:29:30.182Z,55.46
2023-01-09T17:32:17.234Z,54.94
2023-01-09T17:35:03.429Z,55.04
2023-01-09T17:37:49.466Z,55.54
2023-01-09T17:40:35.238Z,55.36
2023-01-09T17:43:21.414Z,55.64
2023-01-09T17:46:10.757Z,55.23
2023-01-09T17:48:57.327Z,55.96
2023-01-09T17:51:43.142Z,55.30
2023-01-09T17:54:29.015Z,55.86
2023-01-09T17:57:16.660Z,55.98
2023-01-09T18:00:06.520Z,55.93
2023-01-09T18:02:53.167Z,56.31
2023-01-09T18:05:38.954Z,56.38
2023-01-09T18:08:24.835Z,56.47
2023-01-09T18:11:19.505Z,56.21
2023-01-09T18:14:05.397Z,56.02
2023-01-09T18:16:51.149Z,56.58
2023-01-09T18:19:36.809Z,56.83
2023-01-09T18:22:22.550Z,56.33
2023-01-09T18:25:08.722Z,56.74
2023-01-09T18:27:54.485Z,56.43
2023-01-09T18:30:40.334Z,56.81
2023-01-09T18:33:26.017Z,56.66
2023-01-09T18:36:12.159Z,56.70
2023-01-09T18:39:00.123Z,57.09
2023-01-09T18:41:45.744Z,57.15
2023-01-09T18:44:31.393Z,56.92
2023-01-09T18:47:17.028Z,57.12
2023-01-09T18:50:02.706Z,56.71
2023-01-09T18:52:48.502Z,57.06
2023-01-09T18:55:36.507Z,57.48
2023-01-09T18:58:22.475Z,57.59
2023-01-09T19:01:08.397Z,57.53
2023-01-09T19:03:56.080Z,57.69
2023-01-09T19:06:41.821Z,57.77
2023-01-09T19:09:28.085Z,57.68
2023-01-09T19:12:14.042Z,57.63
2023-01-09T19:15:00.456Z,57.67
2023-01-09T19:17:47.111Z,57.38
2023-01-09T19:20:33.233Z,57.63
2023-01-09T19:23:20.001Z,58.29
2023-01-09T19:26:08.622Z,57.85
2023-01-09T19:28:55.561Z,58.27
2023-01-09T19:31:41.996Z,58.23
2023-01-09T19:34:28.364Z,58.85
2023-01-09T19:37:14.348Z,58.61
2023-01-09T19:40:00.302Z,59.12
2023-01-09T19:42:45.980Z,58.79
2023-01-09T19:45:31.733Z,58.96
2023-01-09T19:48:17.789Z,58.84
2023-01-09T19:51:05.501Z,59.24
2023-01-09T19:56:45.720Z,59.24
2023-01-09T19:59:31.819Z,58.87
2023-01-09T20:02:17.768Z,60.09
2023-01-09T20:05:03.909Z,59.97
2023-01-09T20:07:55.991Z,60.59
2023-01-09T20:10:42.011Z,60.22
2023-01-09T20:13:27.982Z,59.77
2023-01-09T20:16:17.058Z,60.50
2023-01-09T20:19:07.700Z,60.30
2023-01-09T20:21:53.586Z,59.83
2023-01-09T20:24:39.422Z,60.11
2023-01-09T20:27:25.541Z,60.33
2023-01-09T20:30:11.770Z,60.03
2023-01-09T20:32:58.771Z,60.52
2023-01-09T20:35:45.931Z,60.17
2023-01-09T20:38:32.945Z,60.48
2023-01-09T20:41:25.561Z,60.92
2023-01-09T20:44:13.545Z,60.65
2023-01-09T20:46:59.543Z,61.25
2023-01-09T20:49:45.379Z,60.76
2023-01-09T20:52:30.968Z,60.71
2023-01-09T20:55:16.779Z,60.93
2023-01-09T20:58:02.618Z,60.92
2023-01-09T21:00:48.290Z,61.19
2023-01-09T21:03:34.575Z,60.54
2023-01-09T21:06:21.948Z,60.47
2023-01-09T21:09:07.942Z,61.08
2023-01-09T21:11:54.130Z,61.11
2023-01-09T21:14:39.895Z,61.00
2023-01-09T21:17:25.643Z,61.41
2023-01-09T21:20:14.086Z,61.13
2023-01-09T21:23:00.411Z,61.64
2023-01-09T21:25:48.893Z,61.31
2023-01-09T21:28:43.729Z,60.92
2023-01-09T21:31:34.837Z,60.91
2023-01-09T21:34:20.985Z,60.80
2023-01-09T21:37:07.206Z,60.88
2023-01-09T21:39:52.836Z,61.54
2023-01-09T21:42:57.133Z,61.38
2023-01-09T21:46:01.907Z,61.33
2023-01-09T21:48:47.791Z,61.36
2023-01-09T21:51:39.353Z,61.65
2023-01-09T21:54:25.470Z,61.39
2023-01-09T21:57:11.520Z,61.51
2023-01-09T21:59:57.207Z,61.39
2023-01-09T22:02:44.041Z,61.72
2023-01-09T22:05:29.861Z,61.02
2023-01-09T22:08:15.642Z,61.01
2023-01-09T22:11:01.543Z,60.80
2023-01-09T22:13:48.400Z,61.12
2023-01-09T22:16:34.441Z,60.60
2023-01-09T22:19:20.472Z,61.33
2023-01-09T22:22:08.568Z,61.50
2023-01-09T22:24:54.560Z,61.27
2023-01-09T22:27:40.385Z,61.56
2023-01-09T22:30:26.085Z,61.33
2023-01-09T22:33:11.800Z,60.61
2023-01-09T22:35:57.452Z,61.29
2023-01-09T22:38:43.145Z,61.27
2023-01-09T22:41:32.224Z,61.54
2023-01-09T22:44:19.155Z,61.26
2023-01-09T22:47:05.119Z,61.06
2023-01-09T22:49:53.443Z,61.05
2023-01-09T22:52:39.709Z,61.25
2023-01-09T22:55:25.309Z,62.09
2023-01-09T22:58:10.931Z,61.47
2023-01-09T23:00:56.934Z,60.97
2023-01-09T23:03:42.842Z,61.81
2023-01-09T23:06:28.569Z,61.55
2023-01-09T23:09:14.222Z,61.27
2023-01-09T23:12:03.130Z,61.62
2023-01-09T23:14:49.599Z,61.55
2023-01-09T23:17:36.488Z,61.57
2023-01-09T23:20:22.106Z,61.53
2023-01-09T23:23:07.971Z,61.53
2023-01-09T23:25:56.345Z,62.17
2023-01-09T23:28:42.099Z,61.32
2023-01-09T23:31:27.829Z,61.84
2023-01-09T23:34:15.654Z,61.11
2023-01-09T23:37:01.638Z,61.32
2023-01-09T23:39:47.491Z,61.33
2023-01-09T23:42:51.561Z,61.29
2023-01-09T23:45:42.303Z,61.58
2023-01-09T23:48:28.916Z,61.58
2023-01-09T23:51:14.822Z,61.34
2023-01-09T23:54:00.465Z,61.60
2023-01-09T23:56:46.175Z,61.81
2023-01-09T23:59:32.067Z,61.51
